createdAt,value
2022-10-27T00:02:39.306Z,41.8
2022-10-27T00:07:39.848Z,41.7
2022-10-27T00:12:40.274Z,41.7
2022-10-27T00:17:40.686Z,41.6
2022-10-27T00:22:41.091Z,41.6
2022-10-27T00:27:41.525Z,41.5
2022-10-27T00:32:41.917Z,41.5
2022-10-27T00:37:42.327Z,41.4
2022-10-27T00:42:42.735Z,41.4
2022-10-27T00:47:43.394Z,41.3
2022-10-27T00:52:43.804Z,41.2
2022-10-27T00:57:44.202Z,41.2
2022-10-27T01:02:44.622Z,41.1
2022-10-27T01:07:45.040Z,41.1
2022-10-27T01:12:45.446Z,41.1
2022-10-27T01:17:45.855Z,41
2022-10-27T01:22:46.263Z,40.9
2022-10-27T01:27:46.708Z,40.9
2022-10-27T01:32:47.419Z,40.8
2022-10-27T01:37:48.034Z,40.8
2022-10-27T01:42:48.872Z,40.8
2022-10-27T01:47:49.441Z,40.7
2022-10-27T01:52:50.290Z,40.6
2022-10-27T01:57:50.931Z,40.6
2022-10-27T02:02:51.549Z,40.5
2022-10-27T02:07:52.134Z,40.5
2022-10-27T02:12:52.933Z,40.4
2022-10-27T02:17:53.802Z,40.4
2022-10-27T02:22:54.690Z,40.4
2022-10-27T02:27:55.347Z,40.3
2022-10-27T02:32:55.752Z,40.2
2022-10-27T02:37:56.163Z,40.2
2022-10-27T02:42:56.645Z,40.2
2022-10-27T02:47:57.085Z,40.1
2022-10-27T02:52:57.533Z,40.1
2022-10-27T02:57:57.941Z,40
2022-10-27T03:02:58.355Z,40
2022-10-27T03:07:58.786Z,39.9
2022-10-27T03:12:59.175Z,39.9
2022-10-27T03:17:59.598Z,39.9
2022-10-27T03:23:00.250Z,39.8
2022-10-27T03:28:00.705Z,39.7
2022-10-27T03:33:01.102Z,39.7
2022-10-27T03:38:01.513Z,39.7
2022-10-27T03:43:01.908Z,39.6
2022-10-27T03:48:02.347Z,39.6
2022-10-27T03:53:02.762Z,39.6
2022-10-27T03:58:03.170Z,39.5
2022-10-27T04:03:03.554Z,39.5
2022-10-27T04:08:03.964Z,39.4
2022-10-27T04:13:04.372Z,39.4
2022-10-27T04:18:04.778Z,39.4
2022-10-27T04:23:05.159Z,39.3
2022-10-27T04:28:05.836Z,39.2
2022-10-27T04:33:07.128Z,39.2
2022-10-27T04:38:07.632Z,39.2
2022-10-27T04:43:08.035Z,39.1
2022-10-27T04:48:08.418Z,39.1
2022-10-27T04:53:09.678Z,39.1
2022-10-27T04:58:10.054Z,39
2022-10-27T05:03:10.444Z,39
2022-10-27T05:08:10.859Z,38.9
2022-10-27T05:13:11.284Z,38.9
2022-10-27T05:18:11.710Z,38.9
2022-10-27T05:23:12.113Z,38.9
2022-10-27T05:28:13.377Z,38.8
2022-10-27T05:33:13.742Z,38.7
2022-10-27T05:38:14.189Z,38.7
2022-10-27T05:43:14.593Z,38.7
2022-10-27T05:48:14.978Z,38.7
2022-10-27T05:53:15.378Z,38.6
2022-10-27T05:58:16.873Z,38.6
2022-10-27T06:03:17.332Z,38.6
2022-10-27T06:08:17.718Z,38.5
2022-10-27T06:13:18.085Z,38.5
2022-10-27T06:18:18.557Z,38.4
2022-10-27T06:23:18.961Z,38.4
2022-10-27T06:28:20.191Z,38.4
2022-10-27T06:33:20.855Z,38.4
2022-10-27T06:38:21.263Z,38.3
2022-10-27T06:43:21.632Z,38.2
2022-10-27T06:48:22.054Z,38.2
2022-10-27T06:53:22.459Z,38.2
2022-10-27T06:58:22.844Z,38.2
2022-10-27T07:03:23.215Z,38.1
2022-10-27T07:08:23.629Z,38.1
2022-10-27T07:13:24.021Z,38.1
2022-10-27T07:18:24.377Z,38.1
2022-10-27T07:23:24.776Z,38
2022-10-27T07:28:25.112Z,37.7
2022-10-27T07:33:25.457Z,37.6
2022-10-27T07:38:25.790Z,37.5
2022-10-27T07:43:26.098Z,37.4
2022-10-27T07:48:27.289Z,37.4
2022-10-27T07:53:27.620Z,37.4
2022-10-27T07:58:28.790Z,37.4
2022-10-27T08:03:29.135Z,37.3
2022-10-27T08:08:29.539Z,37.3
2022-10-27T08:13:29.856Z,37.2
2022-10-27T08:18:30.159Z,37.2
2022-10-27T08:23:30.505Z,37.2
2022-10-27T08:28:30.826Z,37.2
2022-10-27T08:33:31.136Z,37.2
2022-10-27T08:38:31.432Z,37.1
2022-10-27T08:43:31.729Z,37.1
2022-10-27T08:48:32.026Z,37.1
2022-10-27T08:53:32.335Z,37.1
2022-10-27T08:58:32.674Z,37
2022-10-27T09:03:33.020Z,37
2022-10-27T09:08:33.328Z,36.9
2022-10-27T09:13:33.656Z,36.9
2022-10-27T09:18:33.961Z,36.9
2022-10-27T09:23:34.306Z,36.9
2022-10-27T09:28:34.625Z,36.8
2022-10-27T09:33:34.950Z,36.8
2022-10-27T09:38:35.251Z,36.7
2022-10-27T09:43:35.612Z,36.7
2022-10-27T09:48:35.931Z,36.7
2022-10-27T09:53:36.232Z,36.7
2022-10-27T09:58:36.519Z,36.7
2022-10-27T10:03:36.850Z,36.6
2022-10-27T10:08:37.154Z,36.6
2022-10-27T10:13:37.492Z,36.6
2022-10-27T10:18:37.800Z,36.6
2022-10-27T10:23:38.360Z,36.5
2022-10-27T10:28:38.646Z,36.5
2022-10-27T10:33:38.943Z,36.5
2022-10-27T10:38:39.232Z,36.4
2022-10-27T10:43:39.570Z,36.4
2022-10-27T10:48:39.894Z,36.4
2022-10-27T10:53:40.229Z,36.4
2022-10-27T10:58:40.540Z,36.4
2022-10-27T11:03:40.891Z,36.3
2022-10-27T11:08:42.225Z,36.3
2022-10-27T11:13:42.966Z,36.3
2022-10-27T11:18:43.269Z,36.2
2022-10-27T11:23:43.589Z,36.2
2022-10-27T11:28:43.874Z,36.2
2022-10-27T11:33:44.161Z,36.2
2022-10-27T11:38:44.457Z,36.2
2022-10-27T11:43:45.543Z,36.1
2022-10-27T11:48:48.008Z,36.1
2022-10-27T11:53:48.300Z,36.1
2022-10-27T11:58:48.643Z,36.1
2022-10-27T12:03:49.765Z,36
2022-10-27T12:08:52.197Z,36
2022-10-27T12:13:52.509Z,36
2022-10-27T12:18:52.797Z,35.7
2022-10-27T12:23:53.090Z,35.6
2022-10-27T12:28:53.363Z,35.6
2022-10-27T12:33:53.722Z,35.5
2022-10-27T12:38:54.044Z,35.5
2022-10-27T12:43:54.320Z,35.5
2022-10-27T12:48:54.608Z,35.4
2022-10-27T12:53:54.924Z,35.4
2022-10-27T12:58:55.206Z,35.4
2022-10-27T13:03:55.860Z,35.4
2022-10-27T13:08:56.384Z,35.4
2022-10-27T13:13:56.693Z,35.4
2022-10-27T13:18:56.958Z,35.3
2022-10-27T13:23:57.225Z,35.3
2022-10-27T13:28:57.508Z,35.3
2022-10-27T13:33:58.098Z,35.2
2022-10-27T13:38:58.407Z,35.2
2022-10-27T13:43:58.678Z,35.2
2022-10-27T13:48:58.939Z,35.1
2022-10-27T13:53:59.331Z,35.1
2022-10-27T13:58:59.671Z,35.1
2022-10-27T14:04:00.053Z,35.1
2022-10-27T14:09:00.348Z,35.1
2022-10-27T14:14:00.620Z,35
2022-10-27T14:19:02.852Z,35
2022-10-27T14:24:03.891Z,35
2022-10-27T14:29:04.225Z,34.9
2022-10-27T14:34:04.471Z,34.9
2022-10-27T14:39:04.726Z,34.9
2022-10-27T14:44:04.983Z,34.4
2022-10-27T14:49:05.232Z,34.1
2022-10-27T14:59:06.883Z,34.1
2022-10-27T15:04:08.277Z,34.1
2022-10-27T15:09:10.599Z,34
2022-10-27T15:14:10.827Z,34
2022-10-27T15:19:11.038Z,34
2022-10-27T15:24:11.252Z,33.9
2022-10-27T15:29:11.499Z,33.9
2022-10-27T15:34:11.710Z,33.9
2022-10-27T15:39:12.145Z,33.9
2022-10-27T15:44:12.357Z,33.9
2022-10-27T15:49:12.586Z,34.1
2022-10-27T15:54:12.958Z,37.2
2022-10-27T15:59:13.444Z,40.2
2022-10-27T16:04:13.883Z,42.7
2022-10-27T16:09:14.407Z,45.3
2022-10-27T16:14:15.050Z,48.1
2022-10-27T16:19:15.729Z,49.6
2022-10-27T16:24:16.428Z,49.7
2022-10-27T16:29:17.783Z,49.7
2022-10-27T16:34:19.088Z,50.3
2022-10-27T16:39:20.576Z,50.5
2022-10-27T16:44:21.379Z,50.5
2022-10-27T16:49:22.174Z,51.4
2022-10-27T16:54:22.965Z,52.2
2022-10-27T16:59:24.796Z,52.9
2022-10-27T17:04:25.641Z,53.2
2022-10-27T17:09:26.481Z,53.2
2022-10-27T17:14:27.306Z,53.1
2022-10-27T17:19:28.158Z,53
2022-10-27T17:24:28.977Z,52.9
2022-10-27T17:29:30.882Z,52.9
2022-10-27T17:34:31.725Z,52.9
2022-10-27T17:39:32.582Z,52.8
2022-10-27T17:44:33.411Z,52.7
2022-10-27T17:49:34.445Z,52.7
2022-10-27T17:54:35.541Z,52.6
2022-10-27T17:59:36.378Z,52.6
2022-10-27T18:04:37.175Z,52.5
2022-10-27T18:09:38.502Z,52.4
2022-10-27T18:14:39.328Z,52.4
2022-10-27T18:19:40.134Z,52.3
2022-10-27T18:24:40.940Z,52.2
2022-10-27T18:29:41.897Z,52.1
2022-10-27T18:34:42.943Z,52.1
2022-10-27T18:39:43.743Z,52
2022-10-27T18:44:44.623Z,51.9
2022-10-27T18:49:48.190Z,51.8
2022-10-27T18:54:49.501Z,51.7
2022-10-27T18:59:50.235Z,51.6
2022-10-27T19:04:51.002Z,51.6
2022-10-27T19:09:51.748Z,51.4
2022-10-27T19:14:52.740Z,51.2
2022-10-27T19:19:53.455Z,51.1
2022-10-27T19:24:54.150Z,50.9
2022-10-27T19:29:54.914Z,50.9
2022-10-27T19:34:55.690Z,50.8
2022-10-27T19:39:56.426Z,50.7
2022-10-27T19:44:57.232Z,50.4
2022-10-27T19:49:58.035Z,50.3
2022-10-27T19:54:58.808Z,50.2
2022-10-27T20:00:01.844Z,50.1
2022-10-27T20:05:04.712Z,50
2022-10-27T20:10:05.445Z,49.9
2022-10-27T20:15:06.201Z,49.9
2022-10-27T20:20:07.148Z,49.7
2022-10-27T20:25:07.766Z,49.7
2022-10-27T20:30:08.640Z,49.6
2022-10-27T20:35:09.514Z,49.5
2022-10-27T20:40:10.265Z,49.4
2022-10-27T20:45:10.964Z,49.2
2022-10-27T20:50:11.644Z,49.2
2022-10-27T20:55:12.340Z,49.1
2022-10-27T21:00:13.006Z,49
2022-10-27T21:05:13.732Z,48.9
2022-10-27T21:10:14.508Z,48.8
2022-10-27T21:15:15.224Z,48.7
2022-10-27T21:20:15.885Z,48.7
2022-10-27T21:25:16.782Z,48.6
2022-10-27T21:30:17.513Z,48.5
2022-10-27T21:35:18.209Z,48.4
2022-10-27T21:40:18.876Z,48.3
2022-10-27T21:45:19.541Z,48.3
2022-10-27T21:50:20.273Z,48.2
2022-10-27T21:55:20.897Z,48.1
2022-10-27T22:00:21.535Z,48
2022-10-27T22:05:22.170Z,47.9
2022-10-27T22:10:22.813Z,47.8
2022-10-27T22:15:23.650Z,47.7
2022-10-27T22:20:24.489Z,47.7
2022-10-27T22:25:25.394Z,47.6
2022-10-27T22:30:26.053Z,47.5
2022-10-27T22:35:26.659Z,47.4
2022-10-27T22:40:27.244Z,47.4
2022-10-27T22:45:27.846Z,47.3
2022-10-27T22:50:28.435Z,47.2
2022-10-27T22:55:29.058Z,47.1
2022-10-27T23:00:29.625Z,47.1
2022-10-27T23:05:30.230Z,47
2022-10-27T23:10:30.837Z,46.9
2022-10-27T23:15:31.665Z,46.8
2022-10-27T23:20:32.503Z,46.7
2022-10-27T23:25:34.004Z,46.7
2022-10-27T23:30:37.214Z,46.6
2022-10-27T23:35:37.799Z,46.5
2022-10-27T23:40:38.641Z,46.5
2022-10-27T23:45:39.242Z,46.4
2022-10-27T23:50:39.841Z,46.3
2022-10-27T23:55:40.457Z,46.2
